sensor_id;sensor_type;location;lat;lon;timestamp;P1;durP1;ratioP1;P2;durP2;ratioP2
63046;SDS011;62025;39.238;9.126;2023-07-31T00:00:37;2.85;;;1.80;;
63046;SDS011;62025;39.238;9.126;2023-07-31T00:03:03;3.60;;;2.22;;
63046;SDS011;62025;39.238;9.126;2023-07-31T00:05:29;3.20;;;1.90;;
63046;SDS011;62025;39.238;9.126;2023-07-31T00:07:55;3.50;;;1.95;;
63046;SDS011;62025;39.238;9.126;2023-07-31T00:10:22;4.53;;;2.05;;
63046;SDS011;62025;39.238;9.126;2023-07-31T00:12:48;6.60;;;2.17;;
63046;SDS011;62025;39.238;9.126;2023-07-31T00:15:14;3.80;;;1.90;;
63046;SDS011;62025;39.238;9.126;2023-07-31T00:17:40;4.05;;;2.05;;
63046;SDS011;62025;39.238;9.126;2023-07-31T00:20:06;3.58;;;2.03;;
63046;SDS011;62025;39.238;9.126;2023-07-31T00:22:33;3.63;;;2.08;;
63046;SDS011;62025;39.238;9.126;2023-07-31T00:24:59;3.70;;;1.80;;
63046;SDS011;62025;39.238;9.126;2023-07-31T00:27:25;3.58;;;2.00;;
63046;SDS011;62025;39.238;9.126;2023-07-31T00:29:51;3.85;;;2.00;;
63046;SDS011;62025;39.238;9.126;2023-07-31T00:32:17;3.45;;;2.20;;
63046;SDS011;62025;39.238;9.126;2023-07-31T00:34:43;2.67;;;2.33;;
63046;SDS011;62025;39.238;9.126;2023-07-31T00:37:09;6.30;;;2.40;;
63046;SDS011;62025;39.238;9.126;2023-07-31T00:39:35;4.95;;;2.50;;
63046;SDS011;62025;39.238;9.126;2023-07-31T00:42:01;2.67;;;2.20;;
63046;SDS011;62025;39.238;9.126;2023-07-31T00:44:28;3.83;;;2.38;;
63046;SDS011;62025;39.238;9.126;2023-07-31T00:46:54;5.97;;;2.33;;
63046;SDS011;62025;39.238;9.126;2023-07-31T00:49:21;2.93;;;2.03;;
63046;SDS011;62025;39.238;9.126;2023-07-31T00:51:48;2.72;;;1.90;;
63046;SDS011;62025;39.238;9.126;2023-07-31T00:54:14;5.35;;;2.00;;
63046;SDS011;62025;39.238;9.126;2023-07-31T00:56:40;2.25;;;1.80;;
63046;SDS011;62025;39.238;9.126;2023-07-31T00:59:10;2.80;;;1.90;;
63046;SDS011;62025;39.238;9.126;2023-07-31T01:01:36;2.30;;;1.80;;
63046;SDS011;62025;39.238;9.126;2023-07-31T01:04:02;3.88;;;2.30;;
63046;SDS011;62025;39.238;9.126;2023-07-31T01:06:42;3.60;;;2.20;;
63046;SDS011;62025;39.238;9.126;2023-07-31T01:09:39;3.38;;;2.20;;
63046;SDS011;62025;39.238;9.126;2023-07-31T01:12:28;3.70;;;2.22;;
63046;SDS011;62025;39.238;9.126;2023-07-31T01:15:09;3.40;;;2.45;;
63046;SDS011;62025;39.238;9.126;2023-07-31T01:17:41;3.53;;;2.20;;
63046;SDS011;62025;39.238;9.126;2023-07-31T01:20:10;4.47;;;2.63;;
63046;SDS011;62025;39.238;9.126;2023-07-31T01:28:40;3.67;;;2.15;;
63046;SDS011;62025;39.238;9.126;2023-07-31T01:31:19;4.55;;;2.38;;
63046;SDS011;62025;39.238;9.126;2023-07-31T01:33:53;3.50;;;2.22;;
63046;SDS011;62025;39.238;9.126;2023-07-31T01:36:23;4.82;;;2.50;;
63046;SDS011;62025;39.238;9.126;2023-07-31T01:38:50;5.00;;;2.80;;
63046;SDS011;62025;39.238;9.126;2023-07-31T01:41:19;5.22;;;2.50;;
63046;SDS011;62025;39.238;9.126;2023-07-31T01:43:45;5.85;;;2.40;;
63046;SDS011;62025;39.238;9.126;2023-07-31T01:46:12;4.13;;;2.53;;
63046;SDS011;62025;39.238;9.126;2023-07-31T01:48:38;3.25;;;2.65;;
63046;SDS011;62025;39.238;9.126;2023-07-31T01:51:04;4.07;;;2.85;;
63046;SDS011;62025;39.238;9.126;2023-07-31T01:53:31;5.38;;;2.80;;
63046;SDS011;62025;39.238;9.126;2023-07-31T01:55:57;4.45;;;2.90;;
63046;SDS011;62025;39.238;9.126;2023-07-31T01:58:23;5.32;;;2.50;;
63046;SDS011;62025;39.238;9.126;2023-07-31T02:00:49;4.07;;;2.75;;
63046;SDS011;62025;39.238;9.126;2023-07-31T02:03:15;3.58;;;2.72;;
63046;SDS011;62025;39.238;9.126;2023-07-31T02:05:44;4.75;;;2.60;;
63046;SDS011;62025;39.238;9.126;2023-07-31T02:08:14;5.28;;;2.63;;
63046;SDS011;62025;39.238;9.126;2023-07-31T02:10:42;6.40;;;2.85;;
63046;SDS011;62025;39.238;9.126;2023-07-31T02:13:08;4.55;;;2.80;;
63046;SDS011;62025;39.238;9.126;2023-07-31T02:15:34;3.47;;;2.80;;
63046;SDS011;62025;39.238;9.126;2023-07-31T02:18:01;2.92;;;2.50;;
63046;SDS011;62025;39.238;9.126;2023-07-31T02:20:27;4.63;;;2.55;;
63046;SDS011;62025;39.238;9.126;2023-07-31T02:22:52;4.75;;;2.60;;
63046;SDS011;62025;39.238;9.126;2023-07-31T02:25:18;3.25;;;2.63;;
63046;SDS011;62025;39.238;9.126;2023-07-31T02:27:44;3.92;;;2.50;;
63046;SDS011;62025;39.238;9.126;2023-07-31T02:30:10;3.42;;;2.38;;
63046;SDS011;62025;39.238;9.126;2023-07-31T02:32:36;5.15;;;2.50;;
63046;SDS011;62025;39.238;9.126;2023-07-31T02:35:03;4.50;;;2.47;;
63046;SDS011;62025;39.238;9.126;2023-07-31T02:37:29;3.00;;;2.50;;
63046;SDS011;62025;39.238;9.126;2023-07-31T02:39:55;2.70;;;2.50;;
63046;SDS011;62025;39.238;9.126;2023-07-31T02:42:21;5.75;;;2.67;;
63046;SDS011;62025;39.238;9.126;2023-07-31T02:44:47;3.67;;;2.40;;
63046;SDS011;62025;39.238;9.126;2023-07-31T02:47:13;3.33;;;2.70;;
63046;SDS011;62025;39.238;9.126;2023-07-31T02:49:39;3.45;;;2.50;;
63046;SDS011;62025;39.238;9.126;2023-07-31T02:52:05;2.88;;;2.50;;
63046;SDS011;62025;39.238;9.126;2023-07-31T02:54:31;3.13;;;2.58;;
63046;SDS011;62025;39.238;9.126;2023-07-31T02:56:58;4.68;;;2.90;;
63046;SDS011;62025;39.238;9.126;2023-07-31T02:59:23;4.78;;;3.15;;
63046;SDS011;62025;39.238;9.126;2023-07-31T03:01:50;5.00;;;2.80;;
63046;SDS011;62025;39.238;9.126;2023-07-31T03:04:16;4.07;;;2.90;;
63046;SDS011;62025;39.238;9.126;2023-07-31T03:06:42;4.25;;;2.65;;
63046;SDS011;62025;39.238;9.126;2023-07-31T03:09:08;4.68;;;2.95;;
63046;SDS011;62025;39.238;9.126;2023-07-31T03:11:34;3.97;;;2.95;;
63046;SDS011;62025;39.238;9.126;2023-07-31T03:14:00;5.05;;;3.20;;
63046;SDS011;62025;39.238;9.126;2023-07-31T03:16:26;4.45;;;2.65;;
63046;SDS011;62025;39.238;9.126;2023-07-31T03:18:53;5.07;;;2.95;;
63046;SDS011;62025;39.238;9.126;2023-07-31T03:21:19;5.43;;;3.03;;
63046;SDS011;62025;39.238;9.126;2023-07-31T03:23:45;8.02;;;2.90;;
63046;SDS011;62025;39.238;9.126;2023-07-31T03:26:11;7.28;;;3.20;;
63046;SDS011;62025;39.238;9.126;2023-07-31T03:28:37;5.15;;;3.53;;
63046;SDS011;62025;39.238;9.126;2023-07-31T03:31:03;6.53;;;3.15;;
63046;SDS011;62025;39.238;9.126;2023-07-31T03:33:29;4.53;;;3.30;;
63046;SDS011;62025;39.238;9.126;2023-07-31T03:35:55;3.67;;;3.00;;
63046;SDS011;62025;39.238;9.126;2023-07-31T03:38:21;4.50;;;2.75;;
63046;SDS011;62025;39.238;9.126;2023-07-31T03:40:47;4.80;;;2.83;;
63046;SDS011;62025;39.238;9.126;2023-07-31T03:43:14;5.68;;;3.55;;
63046;SDS011;62025;39.238;9.126;2023-07-31T03:45:41;6.90;;;3.10;;
63046;SDS011;62025;39.238;9.126;2023-07-31T03:48:07;4.90;;;3.30;;
63046;SDS011;62025;39.238;9.126;2023-07-31T03:50:33;3.40;;;3.10;;
63046;SDS011;62025;39.238;9.126;2023-07-31T03:53:00;5.75;;;3.42;;
63046;SDS011;62025;39.238;9.126;2023-07-31T03:55:26;4.40;;;3.03;;
63046;SDS011;62025;39.238;9.126;2023-07-31T03:57:51;5.03;;;3.30;;
63046;SDS011;62025;39.238;9.126;2023-07-31T04:00:17;7.47;;;3.50;;
63046;SDS011;62025;39.238;9.126;2023-07-31T04:02:43;5.38;;;3.00;;
63046;SDS011;62025;39.238;9.126;2023-07-31T04:05:10;3.92;;;3.20;;
63046;SDS011;62025;39.238;9.126;2023-07-31T04:07:36;4.82;;;3.08;;
63046;SDS011;62025;39.238;9.126;2023-07-31T04:10:03;4.13;;;3.17;;
63046;SDS011;62025;39.238;9.126;2023-07-31T04:12:29;5.97;;;3.20;;
63046;SDS011;62025;39.238;9.126;2023-07-31T04:14:55;4.43;;;3.30;;
63046;SDS011;62025;39.238;9.126;2023-07-31T04:17:21;6.43;;;3.10;;
63046;SDS011;62025;39.238;9.126;2023-07-31T04:19:47;6.45;;;3.45;;
63046;SDS011;62025;39.238;9.126;2023-07-31T04:22:13;3.78;;;3.00;;
63046;SDS011;62025;39.238;9.126;2023-07-31T04:24:39;3.55;;;2.92;;
63046;SDS011;62025;39.238;9.126;2023-07-31T04:27:05;4.38;;;3.28;;
63046;SDS011;62025;39.238;9.126;2023-07-31T04:29:31;5.95;;;3.20;;
63046;SDS011;62025;39.238;9.126;2023-07-31T04:31:57;5.20;;;3.22;;
63046;SDS011;62025;39.238;9.126;2023-07-31T04:34:23;6.07;;;2.95;;
63046;SDS011;62025;39.238;9.126;2023-07-31T04:36:49;4.63;;;3.20;;
63046;SDS011;62025;39.238;9.126;2023-07-31T04:39:15;6.80;;;3.60;;
63046;SDS011;62025;39.238;9.126;2023-07-31T04:41:41;4.88;;;3.30;;
63046;SDS011;62025;39.238;9.126;2023-07-31T04:44:07;6.32;;;3.13;;
63046;SDS011;62025;39.238;9.126;2023-07-31T04:46:33;4.85;;;3.20;;
63046;SDS011;62025;39.238;9.126;2023-07-31T04:49:00;5.85;;;3.33;;
63046;SDS011;62025;39.238;9.126;2023-07-31T04:51:26;4.53;;;3.35;;
63046;SDS011;62025;39.238;9.126;2023-07-31T04:53:52;5.32;;;3.22;;
63046;SDS011;62025;39.238;9.126;2023-07-31T04:56:17;3.40;;;3.03;;
63046;SDS011;62025;39.238;9.126;2023-07-31T04:58:43;6.43;;;3.05;;
63046;SDS011;62025;39.238;9.126;2023-07-31T05:01:09;4.47;;;3.00;;
63046;SDS011;62025;39.238;9.126;2023-07-31T05:03:35;6.25;;;3.53;;
63046;SDS011;62025;39.238;9.126;2023-07-31T05:06:01;4.63;;;3.22;;
63046;SDS011;62025;39.238;9.126;2023-07-31T05:08:27;7.10;;;3.47;;
63046;SDS011;62025;39.238;9.126;2023-07-31T05:10:53;10.00;;;3.35;;
63046;SDS011;62025;39.238;9.126;2023-07-31T05:13:19;5.35;;;3.33;;
63046;SDS011;62025;39.238;9.126;2023-07-31T05:15:45;4.07;;;3.42;;
63046;SDS011;62025;39.238;9.126;2023-07-31T05:18:11;8.63;;;3.58;;
63046;SDS011;62025;39.238;9.126;2023-07-31T05:20:37;6.68;;;3.50;;
63046;SDS011;62025;39.238;9.126;2023-07-31T05:23:03;8.45;;;3.85;;
63046;SDS011;62025;39.238;9.126;2023-07-31T05:25:29;5.72;;;3.40;;
63046;SDS011;62025;39.238;9.126;2023-07-31T05:27:54;4.70;;;3.40;;
63046;SDS011;62025;39.238;9.126;2023-07-31T05:30:20;5.18;;;3.50;;
63046;SDS011;62025;39.238;9.126;2023-07-31T05:32:47;5.40;;;3.60;;
63046;SDS011;62025;39.238;9.126;2023-07-31T05:35:12;5.47;;;3.42;;
63046;SDS011;62025;39.238;9.126;2023-07-31T05:37:38;6.25;;;3.13;;
63046;SDS011;62025;39.238;9.126;2023-07-31T05:40:04;5.20;;;3.50;;
63046;SDS011;62025;39.238;9.126;2023-07-31T05:42:31;5.95;;;3.28;;
63046;SDS011;62025;39.238;9.126;2023-07-31T05:44:57;5.35;;;3.15;;
63046;SDS011;62025;39.238;9.126;2023-07-31T05:47:23;6.10;;;3.67;;
63046;SDS011;62025;39.238;9.126;2023-07-31T05:49:49;5.97;;;3.30;;
63046;SDS011;62025;39.238;9.126;2023-07-31T05:54:44;4.15;;;3.40;;
63046;SDS011;62025;39.238;9.126;2023-07-31T05:57:11;5.57;;;3.67;;
63046;SDS011;62025;39.238;9.126;2023-07-31T05:59:37;7.32;;;3.72;;
63046;SDS011;62025;39.238;9.126;2023-07-31T06:02:03;7.63;;;3.30;;
63046;SDS011;62025;39.238;9.126;2023-07-31T06:04:30;5.20;;;3.33;;
63046;SDS011;62025;39.238;9.126;2023-07-31T06:06:56;9.63;;;3.40;;
63046;SDS011;62025;39.238;9.126;2023-07-31T06:09:22;5.95;;;3.63;;
63046;SDS011;62025;39.238;9.126;2023-07-31T06:11:47;4.60;;;2.95;;
63046;SDS011;62025;39.238;9.126;2023-07-31T06:14:14;6.25;;;2.88;;
63046;SDS011;62025;39.238;9.126;2023-07-31T06:16:40;4.95;;;2.90;;
63046;SDS011;62025;39.238;9.126;2023-07-31T06:19:06;4.32;;;2.97;;
63046;SDS011;62025;39.238;9.126;2023-07-31T06:21:32;7.78;;;3.00;;
63046;SDS011;62025;39.238;9.126;2023-07-31T06:23:59;4.20;;;3.05;;
63046;SDS011;62025;39.238;9.126;2023-07-31T06:26:25;4.53;;;3.05;;
63046;SDS011;62025;39.238;9.126;2023-07-31T06:28:51;6.40;;;2.65;;
63046;SDS011;62025;39.238;9.126;2023-07-31T06:31:17;5.47;;;2.78;;
63046;SDS011;62025;39.238;9.126;2023-07-31T06:33:45;4.22;;;2.80;;
63046;SDS011;62025;39.238;9.126;2023-07-31T06:36:11;3.85;;;2.72;;
63046;SDS011;62025;39.238;9.126;2023-07-31T06:38:37;4.13;;;2.58;;
63046;SDS011;62025;39.238;9.126;2023-07-31T06:41:03;6.55;;;2.78;;
63046;SDS011;62025;39.238;9.126;2023-07-31T06:43:29;4.97;;;2.88;;
63046;SDS011;62025;39.238;9.126;2023-07-31T06:45:55;7.65;;;3.03;;
63046;SDS011;62025;39.238;9.126;2023-07-31T06:48:21;119.95;;;9.00;;
63046;SDS011;62025;39.238;9.126;2023-07-31T06:50:47;31.20;;;4.63;;
63046;SDS011;62025;39.238;9.126;2023-07-31T06:53:13;7.38;;;2.88;;
63046;SDS011;62025;39.238;9.126;2023-07-31T06:55:39;70.57;;;6.35;;
63046;SDS011;62025;39.238;9.126;2023-07-31T06:58:05;7.90;;;3.05;;
63046;SDS011;62025;39.238;9.126;2023-07-31T07:00:31;14.35;;;3.20;;
63046;SDS011;62025;39.238;9.126;2023-07-31T07:02:57;12.52;;;3.50;;
63046;SDS011;62025;39.238;9.126;2023-07-31T07:05:23;25.40;;;4.10;;
63046;SDS011;62025;39.238;9.126;2023-07-31T07:07:49;41.72;;;4.50;;
63046;SDS011;62025;39.238;9.126;2023-07-31T07:10:18;168.00;;;11.52;;
63046;SDS011;62025;39.238;9.126;2023-07-31T07:12:45;18.13;;;4.07;;
63046;SDS011;62025;39.238;9.126;2023-07-31T07:15:11;13.07;;;3.20;;
63046;SDS011;62025;39.238;9.126;2023-07-31T07:17:37;16.63;;;3.28;;
63046;SDS011;62025;39.238;9.126;2023-07-31T07:20:03;6.90;;;2.63;;
63046;SDS011;62025;39.238;9.126;2023-07-31T07:22:30;10.43;;;3.10;;
63046;SDS011;62025;39.238;9.126;2023-07-31T07:24:56;6.13;;;2.78;;
63046;SDS011;62025;39.238;9.126;2023-07-31T07:27:22;3.50;;;2.40;;
63046;SDS011;62025;39.238;9.126;2023-07-31T07:29:49;5.32;;;2.72;;
63046;SDS011;62025;39.238;9.126;2023-07-31T07:32:19;3.42;;;2.50;;
63046;SDS011;62025;39.238;9.126;2023-07-31T07:34:47;6.20;;;2.60;;
63046;SDS011;62025;39.238;9.126;2023-07-31T07:37:14;130.70;;;9.10;;
63046;SDS011;62025;39.238;9.126;2023-07-31T07:39:40;24.58;;;3.40;;
63046;SDS011;62025;39.238;9.126;2023-07-31T07:42:07;22.15;;;2.97;;
63046;SDS011;62025;39.238;9.126;2023-07-31T07:44:33;7.47;;;2.42;;
63046;SDS011;62025;39.238;9.126;2023-07-31T07:46:59;7.03;;;2.50;;
63046;SDS011;62025;39.238;9.126;2023-07-31T07:49:25;5.20;;;2.40;;
63046;SDS011;62025;39.238;9.126;2023-07-31T07:51:51;11.30;;;2.80;;
63046;SDS011;62025;39.238;9.126;2023-07-31T07:54:17;5.97;;;2.60;;
63046;SDS011;62025;39.238;9.126;2023-07-31T07:56:43;15.65;;;2.80;;
63046;SDS011;62025;39.238;9.126;2023-07-31T07:59:09;3.20;;;2.30;;
63046;SDS011;62025;39.238;9.126;2023-07-31T08:01:34;8.68;;;2.50;;
63046;SDS011;62025;39.238;9.126;2023-07-31T08:04:00;4.82;;;2.50;;
63046;SDS011;62025;39.238;9.126;2023-07-31T08:06:26;4.93;;;2.53;;
63046;SDS011;62025;39.238;9.126;2023-07-31T08:08:52;6.63;;;2.83;;
63046;SDS011;62025;39.238;9.126;2023-07-31T08:11:18;7.05;;;2.63;;
63046;SDS011;62025;39.238;9.126;2023-07-31T08:13:44;6.93;;;2.40;;
63046;SDS011;62025;39.238;9.126;2023-07-31T08:16:10;6.75;;;2.67;;
63046;SDS011;62025;39.238;9.126;2023-07-31T08:18:36;3.42;;;2.33;;
63046;SDS011;62025;39.238;9.126;2023-07-31T08:21:02;4.63;;;2.80;;
63046;SDS011;62025;39.238;9.126;2023-07-31T08:23:30;12.93;;;3.15;;
63046;SDS011;62025;39.238;9.126;2023-07-31T08:25:56;6.10;;;2.42;;
63046;SDS011;62025;39.238;9.126;2023-07-31T08:28:21;5.03;;;2.80;;
63046;SDS011;62025;39.238;9.126;2023-07-31T08:30:47;12.15;;;2.53;;
63046;SDS011;62025;39.238;9.126;2023-07-31T08:33:15;5.60;;;2.70;;
63046;SDS011;62025;39.238;9.126;2023-07-31T08:35:41;5.20;;;2.40;;
63046;SDS011;62025;39.238;9.126;2023-07-31T08:38:07;5.53;;;2.47;;
63046;SDS011;62025;39.238;9.126;2023-07-31T08:40:35;3.70;;;2.20;;
63046;SDS011;62025;39.238;9.126;2023-07-31T08:43:05;5.70;;;2.10;;
63046;SDS011;62025;39.238;9.126;2023-07-31T08:45:32;3.90;;;2.20;;
63046;SDS011;62025;39.238;9.126;2023-07-31T08:47:59;3.00;;;2.05;;
63046;SDS011;62025;39.238;9.126;2023-07-31T08:50:25;2.92;;;1.70;;
63046;SDS011;62025;39.238;9.126;2023-07-31T08:52:51;2.50;;;1.80;;
63046;SDS011;62025;39.238;9.126;2023-07-31T08:55:18;6.05;;;2.67;;
63046;SDS011;62025;39.238;9.126;2023-07-31T08:57:51;4.35;;;2.00;;
63046;SDS011;62025;39.238;9.126;2023-07-31T09:00:20;4.57;;;2.30;;
63046;SDS011;62025;39.238;9.126;2023-07-31T09:05:28;7.38;;;2.33;;
63046;SDS011;62025;39.238;9.126;2023-07-31T09:07:56;6.70;;;1.80;;
63046;SDS011;62025;39.238;9.126;2023-07-31T09:10:23;7.53;;;2.15;;
63046;SDS011;62025;39.238;9.126;2023-07-31T09:12:53;3.20;;;1.95;;
63046;SDS011;62025;39.238;9.126;2023-07-31T09:15:20;3.03;;;1.88;;
63046;SDS011;62025;39.238;9.126;2023-07-31T09:17:47;13.97;;;2.00;;
63046;SDS011;62025;39.238;9.126;2023-07-31T09:20:14;7.05;;;1.92;;
63046;SDS011;62025;39.238;9.126;2023-07-31T09:22:45;10.65;;;2.10;;
63046;SDS011;62025;39.238;9.126;2023-07-31T09:25:25;11.63;;;2.00;;
63046;SDS011;62025;39.238;9.126;2023-07-31T09:27:57;10.77;;;2.10;;
63046;SDS011;62025;39.238;9.126;2023-07-31T09:30:27;2.95;;;1.83;;
63046;SDS011;62025;39.238;9.126;2023-07-31T09:33:00;5.13;;;1.50;;
63046;SDS011;62025;39.238;9.126;2023-07-31T09:35:29;7.28;;;1.95;;
63046;SDS011;62025;39.238;9.126;2023-07-31T09:37:59;3.15;;;1.80;;
63046;SDS011;62025;39.238;9.126;2023-07-31T09:40:32;5.40;;;1.77;;
63046;SDS011;62025;39.238;9.126;2023-07-31T09:43:01;5.45;;;1.73;;
63046;SDS011;62025;39.238;9.126;2023-07-31T09:45:29;5.13;;;2.17;;
63046;SDS011;62025;39.238;9.126;2023-07-31T09:47:59;3.30;;;1.70;;
63046;SDS011;62025;39.238;9.126;2023-07-31T09:50:25;7.30;;;2.00;;
63046;SDS011;62025;39.238;9.126;2023-07-31T09:52:51;5.75;;;1.88;;
63046;SDS011;62025;39.238;9.126;2023-07-31T09:55:18;8.15;;;2.22;;
63046;SDS011;62025;39.238;9.126;2023-07-31T09:57:45;5.65;;;2.42;;
63046;SDS011;62025;39.238;9.126;2023-07-31T10:00:17;6.25;;;2.10;;
63046;SDS011;62025;39.238;9.126;2023-07-31T10:02:47;8.00;;;2.20;;
63046;SDS011;62025;39.238;9.126;2023-07-31T10:05:14;4.88;;;2.00;;
63046;SDS011;62025;39.238;9.126;2023-07-31T10:07:51;9.02;;;2.10;;
63046;SDS011;62025;39.238;9.126;2023-07-31T10:10:21;4.45;;;2.00;;
63046;SDS011;62025;39.238;9.126;2023-07-31T10:12:48;4.07;;;2.35;;
63046;SDS011;62025;39.238;9.126;2023-07-31T10:15:18;3.95;;;2.05;;
63046;SDS011;62025;39.238;9.126;2023-07-31T10:17:46;6.20;;;2.30;;
63046;SDS011;62025;39.238;9.126;2023-07-31T10:20:14;8.05;;;2.30;;
63046;SDS011;62025;39.238;9.126;2023-07-31T10:22:42;7.63;;;2.40;;
63046;SDS011;62025;39.238;9.126;2023-07-31T10:25:11;5.43;;;2.20;;
63046;SDS011;62025;39.238;9.126;2023-07-31T10:27:38;5.22;;;2.45;;
63046;SDS011;62025;39.238;9.126;2023-07-31T10:32:37;5.40;;;2.20;;
63046;SDS011;62025;39.238;9.126;2023-07-31T10:35:06;4.25;;;1.92;;
63046;SDS011;62025;39.238;9.126;2023-07-31T10:37:38;5.55;;;2.05;;
63046;SDS011;62025;39.238;9.126;2023-07-31T10:40:16;10.77;;;2.30;;
63046;SDS011;62025;39.238;9.126;2023-07-31T10:42:53;3.45;;;2.25;;
63046;SDS011;62025;39.238;9.126;2023-07-31T10:45:32;4.43;;;2.35;;
63046;SDS011;62025;39.238;9.126;2023-07-31T10:48:02;5.93;;;2.25;;
63046;SDS011;62025;39.238;9.126;2023-07-31T10:50:31;3.25;;;2.30;;
63046;SDS011;62025;39.238;9.126;2023-07-31T10:53:02;4.45;;;2.10;;
63046;SDS011;62025;39.238;9.126;2023-07-31T10:58:08;6.70;;;2.63;;
63046;SDS011;62025;39.238;9.126;2023-07-31T11:00:42;9.15;;;3.30;;
63046;SDS011;62025;39.238;9.126;2023-07-31T11:03:10;4.80;;;2.72;;
63046;SDS011;62025;39.238;9.126;2023-07-31T11:05:42;6.03;;;3.08;;
63046;SDS011;62025;39.238;9.126;2023-07-31T11:08:27;6.20;;;2.80;;
63046;SDS011;62025;39.238;9.126;2023-07-31T11:13:46;7.50;;;2.90;;
63046;SDS011;62025;39.238;9.126;2023-07-31T11:16:15;6.80;;;2.88;;
63046;SDS011;62025;39.238;9.126;2023-07-31T11:18:43;3.75;;;2.47;;
63046;SDS011;62025;39.238;9.126;2023-07-31T11:21:14;3.38;;;2.67;;
63046;SDS011;62025;39.238;9.126;2023-07-31T11:23:45;5.07;;;2.45;;
63046;SDS011;62025;39.238;9.126;2023-07-31T11:26:22;5.55;;;2.60;;
63046;SDS011;62025;39.238;9.126;2023-07-31T11:28:50;2.35;;;2.15;;
63046;SDS011;62025;39.238;9.126;2023-07-31T11:31:16;14.10;;;2.58;;
63046;SDS011;62025;39.238;9.126;2023-07-31T11:33:43;7.47;;;2.60;;
63046;SDS011;62025;39.238;9.126;2023-07-31T11:36:19;4.85;;;2.47;;
63046;SDS011;62025;39.238;9.126;2023-07-31T11:38:46;4.68;;;2.38;;
63046;SDS011;62025;39.238;9.126;2023-07-31T11:41:13;5.47;;;2.30;;
63046;SDS011;62025;39.238;9.126;2023-07-31T11:43:43;6.10;;;2.08;;
63046;SDS011;62025;39.238;9.126;2023-07-31T11:46:13;5.20;;;1.90;;
63046;SDS011;62025;39.238;9.126;2023-07-31T11:48:40;3.60;;;2.03;;
63046;SDS011;62025;39.238;9.126;2023-07-31T11:51:07;4.82;;;1.83;;
63046;SDS011;62025;39.238;9.126;2023-07-31T11:53:41;2.42;;;1.80;;
63046;SDS011;62025;39.238;9.126;2023-07-31T11:56:12;2.75;;;1.58;;
63046;SDS011;62025;39.238;9.126;2023-07-31T11:58:39;4.05;;;1.65;;
63046;SDS011;62025;39.238;9.126;2023-07-31T12:01:08;5.85;;;1.60;;
63046;SDS011;62025;39.238;9.126;2023-07-31T12:03:34;7.15;;;1.73;;
63046;SDS011;62025;39.238;9.126;2023-07-31T12:06:01;4.07;;;1.50;;
63046;SDS011;62025;39.238;9.126;2023-07-31T12:08:27;3.25;;;1.65;;
63046;SDS011;62025;39.238;9.126;2023-07-31T12:10:54;2.72;;;1.70;;
63046;SDS011;62025;39.238;9.126;2023-07-31T12:13:34;2.80;;;1.58;;
63046;SDS011;62025;39.238;9.126;2023-07-31T12:16:01;5.60;;;1.70;;
63046;SDS011;62025;39.238;9.126;2023-07-31T12:18:30;9.60;;;2.25;;
63046;SDS011;62025;39.238;9.126;2023-07-31T12:21:04;4.95;;;1.98;;
63046;SDS011;62025;39.238;9.126;2023-07-31T12:23:34;14.52;;;1.73;;
63046;SDS011;62025;39.238;9.126;2023-07-31T12:26:06;12.27;;;2.03;;
63046;SDS011;62025;39.238;9.126;2023-07-31T12:28:37;4.88;;;2.00;;
63046;SDS011;62025;39.238;9.126;2023-07-31T12:31:22;6.38;;;2.00;;
63046;SDS011;62025;39.238;9.126;2023-07-31T12:33:49;6.03;;;1.98;;
63046;SDS011;62025;39.238;9.126;2023-07-31T12:36:17;3.97;;;2.00;;
63046;SDS011;62025;39.238;9.126;2023-07-31T12:38:47;2.45;;;1.90;;
63046;SDS011;62025;39.238;9.126;2023-07-31T12:41:13;11.63;;;2.90;;
63046;SDS011;62025;39.238;9.126;2023-07-31T12:43:39;4.50;;;2.92;;
63046;SDS011;62025;39.238;9.126;2023-07-31T12:46:07;4.88;;;3.25;;
63046;SDS011;62025;39.238;9.126;2023-07-31T12:48:33;7.55;;;2.90;;
63046;SDS011;62025;39.238;9.126;2023-07-31T12:51:00;9.00;;;3.13;;
63046;SDS011;62025;39.238;9.126;2023-07-31T12:53:27;9.35;;;2.63;;
63046;SDS011;62025;39.238;9.126;2023-07-31T12:55:53;5.35;;;2.22;;
63046;SDS011;62025;39.238;9.126;2023-07-31T12:58:20;10.38;;;2.30;;
63046;SDS011;62025;39.238;9.126;2023-07-31T13:00:46;9.88;;;2.42;;
63046;SDS011;62025;39.238;9.126;2023-07-31T13:03:12;4.28;;;2.33;;
63046;SDS011;62025;39.238;9.126;2023-07-31T13:05:38;7.25;;;2.53;;
63046;SDS011;62025;39.238;9.126;2023-07-31T13:08:04;8.75;;;2.40;;
63046;SDS011;62025;39.238;9.126;2023-07-31T13:10:30;5.45;;;2.55;;
63046;SDS011;62025;39.238;9.126;2023-07-31T13:12:56;6.75;;;2.63;;
63046;SDS011;62025;39.238;9.126;2023-07-31T13:15:22;6.45;;;3.25;;
63046;SDS011;62025;39.238;9.126;2023-07-31T13:17:49;7.32;;;2.80;;
63046;SDS011;62025;39.238;9.126;2023-07-31T13:20:15;9.52;;;4.50;;
63046;SDS011;62025;39.238;9.126;2023-07-31T13:22:40;11.57;;;4.07;;
63046;SDS011;62025;39.238;9.126;2023-07-31T13:25:07;9.48;;;5.25;;
63046;SDS011;62025;39.238;9.126;2023-07-31T13:27:34;15.40;;;6.57;;
63046;SDS011;62025;39.238;9.126;2023-07-31T13:30:00;19.30;;;15.55;;
63046;SDS011;62025;39.238;9.126;2023-07-31T13:32:27;23.63;;;17.83;;
63046;SDS011;62025;39.238;9.126;2023-07-31T13:34:53;13.95;;;10.27;;
63046;SDS011;62025;39.238;9.126;2023-07-31T13:37:19;13.63;;;7.28;;
63046;SDS011;62025;39.238;9.126;2023-07-31T13:39:44;11.90;;;9.07;;
63046;SDS011;62025;39.238;9.126;2023-07-31T13:42:10;17.52;;;10.35;;
63046;SDS011;62025;39.238;9.126;2023-07-31T13:44:37;13.68;;;10.77;;
63046;SDS011;62025;39.238;9.126;2023-07-31T13:47:04;11.90;;;7.10;;
63046;SDS011;62025;39.238;9.126;2023-07-31T13:49:31;10.10;;;6.78;;
63046;SDS011;62025;39.238;9.126;2023-07-31T13:51:58;19.27;;;8.60;;
63046;SDS011;62025;39.238;9.126;2023-07-31T13:54:24;15.45;;;13.73;;
63046;SDS011;62025;39.238;9.126;2023-07-31T13:56:51;9.63;;;7.30;;
63046;SDS011;62025;39.238;9.126;2023-07-31T13:59:18;10.73;;;6.90;;
63046;SDS011;62025;39.238;9.126;2023-07-31T14:01:44;9.07;;;3.83;;
63046;SDS011;62025;39.238;9.126;2023-07-31T14:04:11;15.98;;;3.90;;
63046;SDS011;62025;39.238;9.126;2023-07-31T14:06:37;12.45;;;6.72;;
63046;SDS011;62025;39.238;9.126;2023-07-31T14:09:04;11.82;;;8.00;;
63046;SDS011;62025;39.238;9.126;2023-07-31T14:11:30;21.95;;;13.90;;
63046;SDS011;62025;39.238;9.126;2023-07-31T14:13:57;17.80;;;12.63;;
63046;SDS011;62025;39.238;9.126;2023-07-31T14:16:23;10.02;;;8.27;;
63046;SDS011;62025;39.238;9.126;2023-07-31T14:18:49;9.05;;;4.85;;
63046;SDS011;62025;39.238;9.126;2023-07-31T14:21:15;14.63;;;9.63;;
63046;SDS011;62025;39.238;9.126;2023-07-31T14:23:41;16.90;;;12.70;;
63046;SDS011;62025;39.238;9.126;2023-07-31T14:26:07;20.65;;;13.90;;
63046;SDS011;62025;39.238;9.126;2023-07-31T14:28:33;12.95;;;6.75;;
63046;SDS011;62025;39.238;9.126;2023-07-31T14:30:59;6.90;;;4.97;;
63046;SDS011;62025;39.238;9.126;2023-07-31T14:33:25;17.80;;;8.75;;
63046;SDS011;62025;39.238;9.126;2023-07-31T14:35:51;11.50;;;7.57;;
63046;SDS011;62025;39.238;9.126;2023-07-31T14:42:24;13.15;;;7.68;;
63046;SDS011;62025;39.238;9.126;2023-07-31T14:44:50;13.75;;;5.03;;
63046;SDS011;62025;39.238;9.126;2023-07-31T14:47:16;15.77;;;6.90;;
63046;SDS011;62025;39.238;9.126;2023-07-31T14:49:42;13.18;;;5.45;;
63046;SDS011;62025;39.238;9.126;2023-07-31T14:52:08;12.55;;;5.57;;
63046;SDS011;62025;39.238;9.126;2023-07-31T14:54:34;17.50;;;9.65;;
63046;SDS011;62025;39.238;9.126;2023-07-31T14:57:00;19.60;;;11.77;;
63046;SDS011;62025;39.238;9.126;2023-07-31T14:59:25;16.75;;;10.65;;
63046;SDS011;62025;39.238;9.126;2023-07-31T15:01:51;18.98;;;13.60;;
63046;SDS011;62025;39.238;9.126;2023-07-31T15:04:18;15.07;;;9.85;;
63046;SDS011;62025;39.238;9.126;2023-07-31T15:06:44;22.85;;;13.82;;
63046;SDS011;62025;39.238;9.126;2023-07-31T15:09:10;24.13;;;15.20;;